createdAt,value
2022-10-23T00:00:07.797Z,0
2022-10-23T00:03:07.870Z,0
2022-10-23T00:06:07.451Z,0
2022-10-23T00:09:07.270Z,0
2022-10-23T00:12:07.306Z,0
2022-10-23T00:15:09.501Z,0
2022-10-23T00:18:07.408Z,0
2022-10-23T00:21:08.710Z,0
2022-10-23T00:24:07.555Z,0
2022-10-23T00:27:09.951Z,0
2022-10-23T00:30:07.855Z,0
2022-10-23T00:33:07.285Z,0
2022-10-23T00:36:07.301Z,0
2022-10-23T00:39:07.297Z,0
2022-10-23T00:42:08.599Z,0
2022-10-23T00:45:07.980Z,0
2022-10-23T00:48:07.423Z,0
2022-10-23T00:51:07.866Z,0
2022-10-23T00:54:30.299Z,0
2022-10-23T00:57:07.499Z,0
2022-10-23T01:00:07.338Z,0
2022-10-23T01:03:07.507Z,0
2022-10-23T01:06:07.357Z,0
2022-10-23T01:09:07.704Z,0
2022-10-23T01:12:07.543Z,0
2022-10-23T01:15:07.385Z,0
2022-10-23T01:18:08.285Z,0
2022-10-23T01:21:07.555Z,0
2022-10-23T01:24:07.293Z,0
2022-10-23T01:27:07.354Z,0
2022-10-23T01:30:07.346Z,0
2022-10-23T01:33:07.338Z,0
2022-10-23T01:36:09.201Z,0
2022-10-23T01:39:08.633Z,0
2022-10-23T01:42:08.635Z,0
2022-10-23T01:45:07.338Z,0
2022-10-23T01:48:07.497Z,0
2022-10-23T01:51:07.746Z,0
2022-10-23T01:54:08.671Z,0
2022-10-23T01:57:08.136Z,0
2022-10-23T02:00:07.371Z,0
2022-10-23T02:03:07.350Z,0
2022-10-23T02:06:07.342Z,0
2022-10-23T02:09:07.274Z,0
2022-10-23T02:12:07.452Z,0
2022-10-23T02:15:07.792Z,0
2022-10-23T02:18:07.317Z,0
2022-10-23T02:21:07.266Z,0
2022-10-23T02:24:07.306Z,0
2022-10-23T02:27:07.304Z,0
2022-10-23T02:30:07.342Z,0
2022-10-23T02:33:07.300Z,0
2022-10-23T02:36:07.317Z,0
2022-10-23T02:39:07.301Z,0
2022-10-23T02:42:07.322Z,0
2022-10-23T02:45:07.340Z,0
2022-10-23T02:48:07.312Z,0
2022-10-23T02:51:07.323Z,0
2022-10-23T02:54:07.382Z,0
2022-10-23T02:57:07.327Z,0
2022-10-23T03:00:07.314Z,0
2022-10-23T03:03:07.301Z,0
2022-10-23T03:06:07.352Z,0
2022-10-23T03:09:07.372Z,0
2022-10-23T03:12:07.344Z,0
2022-10-23T03:15:07.347Z,0
2022-10-23T03:18:07.406Z,0
2022-10-23T03:21:07.338Z,0
2022-10-23T03:24:07.296Z,0
2022-10-23T03:27:07.364Z,0
2022-10-23T03:30:07.326Z,0
2022-10-23T03:33:07.351Z,0
2022-10-23T03:36:07.322Z,0
2022-10-23T03:39:07.326Z,0
2022-10-23T03:42:07.263Z,0
2022-10-23T03:45:07.294Z,0
2022-10-23T03:48:07.317Z,0
2022-10-23T03:51:07.279Z,0
2022-10-23T03:54:07.360Z,0
2022-10-23T03:57:07.266Z,0
2022-10-23T04:00:07.410Z,0
2022-10-23T04:03:07.363Z,0
2022-10-23T04:06:07.340Z,0
2022-10-23T04:09:07.686Z,0
2022-10-23T04:12:07.321Z,0
2022-10-23T04:15:07.329Z,0
2022-10-23T04:18:07.275Z,0
2022-10-23T04:21:07.307Z,0
2022-10-23T04:24:07.312Z,0
2022-10-23T04:27:07.414Z,0
2022-10-23T04:30:07.308Z,0
2022-10-23T04:33:07.257Z,0
2022-10-23T04:36:07.341Z,0
2022-10-23T04:39:07.275Z,0
2022-10-23T04:42:07.336Z,0
2022-10-23T04:45:07.294Z,0
2022-10-23T04:48:07.326Z,0
2022-10-23T04:51:07.288Z,0
2022-10-23T04:54:07.338Z,0
2022-10-23T04:57:07.260Z,0
2022-10-23T05:00:07.488Z,0
2022-10-23T05:03:07.269Z,0
2022-10-23T05:06:07.294Z,0
2022-10-23T05:09:07.316Z,0
2022-10-23T05:12:07.297Z,0
2022-10-23T05:15:07.412Z,0
2022-10-23T05:18:07.279Z,0
2022-10-23T05:21:07.414Z,0
2022-10-23T05:27:07.343Z,3
2022-10-23T05:30:07.315Z,3
2022-10-23T05:33:07.360Z,7
2022-10-23T05:36:07.333Z,10
2022-10-23T05:39:07.301Z,20
2022-10-23T05:42:07.317Z,30
2022-10-23T05:45:07.421Z,50
2022-10-23T05:48:38.834Z,73
2022-10-23T05:51:07.276Z,103
2022-10-23T05:54:07.329Z,140
2022-10-23T05:57:07.525Z,180
2022-10-23T06:00:07.443Z,223
2022-10-23T06:03:07.349Z,280
2022-10-23T06:06:07.449Z,360
2022-10-23T06:09:07.338Z,447
2022-10-23T06:12:07.368Z,560
2022-10-23T06:15:07.300Z,703
2022-10-23T06:18:07.521Z,887
2022-10-23T06:21:07.356Z,1120
2022-10-23T06:24:07.339Z,1333
2022-10-23T06:27:07.363Z,1543
2022-10-23T06:30:07.338Z,1780
2022-10-23T06:33:13.104Z,1990
2022-10-23T06:36:07.315Z,2257
2022-10-23T06:42:07.417Z,2703
2022-10-23T06:45:13.744Z,2783
2022-10-23T06:48:07.372Z,2960
2022-10-23T06:51:07.364Z,3217
2022-10-23T06:54:07.366Z,3390
2022-10-23T06:57:07.406Z,3500
2022-10-23T07:00:07.486Z,3737
2022-10-23T07:03:07.432Z,4107
2022-10-23T07:06:07.369Z,4413
2022-10-23T07:09:07.333Z,4447
2022-10-23T07:12:07.413Z,4440
2022-10-23T07:15:07.416Z,4547
2022-10-23T07:18:07.399Z,4623
2022-10-23T07:21:07.434Z,4620
2022-10-23T07:24:07.393Z,4693
2022-10-23T07:27:07.394Z,4963
2022-10-23T07:30:07.427Z,5380
2022-10-23T07:33:07.484Z,5760
2022-10-23T07:36:07.379Z,6053
2022-10-23T07:39:07.387Z,6240
2022-10-23T07:42:07.355Z,6493
2022-10-23T07:45:07.537Z,6873
2022-10-23T07:48:07.393Z,7350
2022-10-23T07:51:07.371Z,7943
2022-10-23T07:54:07.371Z,8403
2022-10-23T07:57:07.346Z,8660
2022-10-23T08:00:07.386Z,8913
2022-10-23T08:03:07.348Z,9100
2022-10-23T08:06:07.328Z,9227
2022-10-23T08:09:13.416Z,9253
2022-10-23T08:12:07.444Z,9317
2022-10-23T08:15:07.357Z,9570
2022-10-23T08:18:07.382Z,9967
2022-10-23T08:21:07.340Z,10683
2022-10-23T08:24:07.362Z,11900
2022-10-23T08:27:07.323Z,12940
2022-10-23T08:30:07.562Z,15057
2022-10-23T08:33:07.313Z,18010
2022-10-23T08:36:07.419Z,16553
2022-10-23T08:39:07.365Z,16673
2022-10-23T08:42:07.706Z,17143
2022-10-23T08:45:07.384Z,17057
2022-10-23T08:48:07.334Z,16890
2022-10-23T08:51:07.404Z,17433
2022-10-23T08:54:07.384Z,16790
2022-10-23T08:57:07.322Z,17847
2022-10-23T09:00:07.366Z,20133
2022-10-23T09:03:07.537Z,21463
2022-10-23T09:06:07.389Z,19143
2022-10-23T09:09:07.358Z,18337
2022-10-23T09:12:07.386Z,17863
2022-10-23T09:15:07.367Z,16367
2022-10-23T09:18:07.346Z,16300
2022-10-23T09:21:07.341Z,16247
2022-10-23T09:24:07.412Z,16703
2022-10-23T09:27:07.513Z,18063
2022-10-23T09:30:07.346Z,18363
2022-10-23T09:33:07.338Z,18913
2022-10-23T09:36:07.372Z,19220
2022-10-23T09:39:07.397Z,18503
2022-10-23T09:42:07.407Z,17910
2022-10-23T09:45:07.351Z,18460
2022-10-23T09:48:07.377Z,18633
2022-10-23T09:51:07.391Z,17980
2022-10-23T09:54:07.370Z,17927
2022-10-23T09:57:07.364Z,16900
2022-10-23T10:00:07.572Z,17067
2022-10-23T10:03:07.325Z,15833
2022-10-23T10:06:07.347Z,15810
2022-10-23T10:09:07.377Z,15427
2022-10-23T10:12:07.376Z,14737
2022-10-23T10:15:07.342Z,14573
2022-10-23T10:18:07.358Z,14700
2022-10-23T10:21:07.374Z,14540
2022-10-23T10:24:07.403Z,14743
2022-10-23T10:27:07.361Z,15407
2022-10-23T10:30:07.471Z,15723
2022-10-23T10:33:07.324Z,15307
2022-10-23T10:36:07.399Z,15040
2022-10-23T10:39:07.309Z,14407
2022-10-23T10:42:07.359Z,13603
2022-10-23T10:45:07.343Z,13070
2022-10-23T10:48:07.377Z,13480
2022-10-23T10:51:07.380Z,16423
2022-10-23T10:54:07.425Z,18417
2022-10-23T10:57:07.367Z,19350
2022-10-23T11:00:07.459Z,19783
2022-10-23T11:03:07.369Z,19817
2022-10-23T11:06:07.427Z,22120
2022-10-23T11:09:27.502Z,23770
2022-10-23T11:12:07.372Z,24637
2022-10-23T11:15:07.345Z,23503
2022-10-23T11:18:07.335Z,25187
2022-10-23T11:21:07.336Z,27207
2022-10-23T11:24:07.670Z,27680
2022-10-23T11:27:07.353Z,28140
2022-10-23T11:30:07.404Z,29537
2022-10-23T11:33:07.399Z,28530
2022-10-23T11:36:07.477Z,34077
2022-10-23T11:39:07.367Z,36680
2022-10-23T11:42:07.330Z,36733
2022-10-23T11:45:07.401Z,31147
2022-10-23T11:48:07.398Z,30610
2022-10-23T11:51:11.828Z,28233
2022-10-23T11:54:07.353Z,21797
2022-10-23T11:57:11.468Z,20707
2022-10-23T12:00:07.439Z,20143
2022-10-23T12:03:07.736Z,19547
2022-10-23T12:06:07.420Z,18663
2022-10-23T12:09:07.387Z,20790
2022-10-23T12:12:07.445Z,21740
2022-10-23T12:15:07.425Z,20360
2022-10-23T12:18:07.415Z,22857
2022-10-23T12:21:07.398Z,21557
2022-10-23T12:24:07.400Z,21300
2022-10-23T12:27:07.416Z,20893
2022-10-23T12:30:07.475Z,21657
2022-10-23T12:33:07.358Z,22127
2022-10-23T12:36:07.400Z,19267
2022-10-23T12:39:07.426Z,15990
2022-10-23T12:42:07.435Z,16053
2022-10-23T12:45:07.332Z,21737
2022-10-23T12:48:07.370Z,21223
2022-10-23T12:51:07.333Z,18817
2022-10-23T12:54:07.307Z,18650
2022-10-23T12:57:07.299Z,17177
2022-10-23T13:00:07.435Z,16170
2022-10-23T13:03:07.391Z,13197
2022-10-23T13:06:07.585Z,12503
2022-10-23T13:09:07.385Z,11680
2022-10-23T13:12:07.372Z,10420
2022-10-23T13:15:07.374Z,9687
2022-10-23T13:18:07.380Z,9547
2022-10-23T13:24:07.385Z,10300
2022-10-23T13:27:07.392Z,10717
2022-10-23T13:30:13.022Z,11157
2022-10-23T13:33:07.381Z,11177
2022-10-23T13:36:07.336Z,10650
2022-10-23T13:39:07.407Z,10517
2022-10-23T13:42:07.377Z,10323
2022-10-23T13:45:07.371Z,9497
2022-10-23T13:48:07.358Z,8033
2022-10-23T13:51:07.335Z,6583
2022-10-23T13:54:07.302Z,5687
2022-10-23T13:57:07.341Z,5840
2022-10-23T14:00:07.498Z,6397
2022-10-23T14:03:07.395Z,6207
2022-10-23T14:06:07.336Z,6143
2022-10-23T14:09:07.353Z,6907
2022-10-23T14:12:07.406Z,7633
2022-10-23T14:15:07.346Z,7900
2022-10-23T14:18:14.971Z,7863
2022-10-23T14:21:07.389Z,7420
2022-10-23T14:24:07.374Z,6763
2022-10-23T14:27:07.566Z,6143
2022-10-23T14:30:07.356Z,5560
2022-10-23T14:33:07.353Z,5030
2022-10-23T14:36:07.489Z,4540
2022-10-23T14:39:07.564Z,3943
2022-10-23T14:42:07.490Z,3490
2022-10-23T14:45:07.389Z,3607
2022-10-23T14:48:07.329Z,3253
2022-10-23T14:51:07.381Z,3613
2022-10-23T14:54:07.463Z,3770
2022-10-23T14:57:07.329Z,3750
2022-10-23T15:00:07.795Z,3483
2022-10-23T15:03:07.354Z,3157
2022-10-23T15:06:07.426Z,3013
2022-10-23T15:09:07.415Z,2923
2022-10-23T15:12:07.328Z,2727
2022-10-23T15:15:07.393Z,2320
2022-10-23T15:18:07.340Z,2057
2022-10-23T15:21:07.344Z,1833
2022-10-23T15:24:07.398Z,1443
2022-10-23T15:30:07.397Z,1200
2022-10-23T15:33:07.343Z,1053
2022-10-23T15:36:07.358Z,1033
2022-10-23T15:39:07.354Z,1217
2022-10-23T15:42:07.427Z,1120
2022-10-23T15:45:07.333Z,967
2022-10-23T15:48:07.419Z,853
2022-10-23T15:51:07.321Z,670
2022-10-23T15:54:07.353Z,510
2022-10-23T15:57:07.349Z,390
2022-10-23T16:00:07.637Z,273
2022-10-23T16:03:07.360Z,200
2022-10-23T16:06:07.403Z,150
2022-10-23T16:09:07.398Z,117
2022-10-23T16:12:07.322Z,93
2022-10-23T16:15:07.300Z,70
2022-10-23T16:18:07.293Z,50
2022-10-23T16:21:07.269Z,33
2022-10-23T16:24:07.293Z,20
2022-10-23T16:27:07.379Z,10
2022-10-23T16:30:07.288Z,7
2022-10-23T16:33:07.373Z,3
2022-10-23T16:36:07.359Z,3
2022-10-23T16:39:07.352Z,0
2022-10-23T16:42:07.567Z,0
2022-10-23T16:45:07.319Z,0
2022-10-23T16:48:07.302Z,0
2022-10-23T16:51:07.353Z,0
2022-10-23T16:54:07.708Z,0
2022-10-23T16:57:07.331Z,0
2022-10-23T17:00:07.376Z,0
2022-10-23T17:03:07.309Z,0
2022-10-23T17:06:13.588Z,0
2022-10-23T17:09:07.365Z,0
2022-10-23T17:12:07.386Z,0
2022-10-23T17:15:07.396Z,0
2022-10-23T17:18:07.302Z,0
2022-10-23T17:21:07.257Z,0
2022-10-23T17:27:07.454Z,0
2022-10-23T17:30:12.598Z,0
2022-10-23T17:33:08.766Z,0
2022-10-23T17:36:07.354Z,0
2022-10-23T17:39:07.330Z,0
2022-10-23T17:42:07.313Z,0
2022-10-23T17:45:07.330Z,0
2022-10-23T17:48:07.408Z,0
2022-10-23T17:51:07.286Z,0
2022-10-23T17:54:07.319Z,0
2022-10-23T17:57:07.267Z,0
2022-10-23T18:00:07.433Z,0
2022-10-23T18:03:07.289Z,0
2022-10-23T18:06:07.327Z,0
2022-10-23T18:09:07.290Z,0
2022-10-23T18:12:07.365Z,0
2022-10-23T18:15:07.361Z,0
2022-10-23T18:18:07.313Z,0
2022-10-23T18:21:07.419Z,0
2022-10-23T18:24:07.352Z,0
2022-10-23T18:27:07.536Z,0
2022-10-23T18:30:07.342Z,0
2022-10-23T18:33:07.333Z,0
2022-10-23T18:36:07.312Z,0
2022-10-23T18:39:07.368Z,0
2022-10-23T18:42:07.383Z,0
2022-10-23T18:45:07.306Z,0
2022-10-23T18:48:07.318Z,0
2022-10-23T18:51:07.301Z,0
2022-10-23T18:54:07.332Z,0
2022-10-23T18:57:07.378Z,0
2022-10-23T19:00:07.381Z,0
2022-10-23T19:03:07.290Z,0
2022-10-23T19:06:07.410Z,0
2022-10-23T19:09:07.317Z,0
2022-10-23T19:12:07.656Z,0
2022-10-23T19:15:07.313Z,0
2022-10-23T19:18:07.327Z,0
2022-10-23T19:21:07.370Z,0
2022-10-23T19:24:07.270Z,0
2022-10-23T19:27:07.348Z,0
2022-10-23T19:30:07.312Z,0
2022-10-23T19:33:07.499Z,0
2022-10-23T19:36:23.338Z,0
2022-10-23T19:39:07.373Z,0
2022-10-23T19:42:07.280Z,0
2022-10-23T19:45:07.312Z,0
2022-10-23T19:48:07.298Z,0
2022-10-23T19:51:07.371Z,0
2022-10-23T19:54:07.355Z,0
2022-10-23T19:57:07.367Z,0
2022-10-23T20:00:07.333Z,0
2022-10-23T20:03:07.355Z,0
2022-10-23T20:06:07.337Z,0
2022-10-23T20:09:07.259Z,0
2022-10-23T20:12:07.345Z,0
2022-10-23T20:15:07.356Z,0
2022-10-23T20:18:07.327Z,0
2022-10-23T20:21:07.349Z,0
2022-10-23T20:24:07.344Z,0
2022-10-23T20:27:07.305Z,0
2022-10-23T20:30:07.378Z,0
2022-10-23T20:33:07.326Z,0
2022-10-23T20:36:07.318Z,0
2022-10-23T20:39:07.447Z,0
2022-10-23T20:42:07.422Z,0
2022-10-23T20:45:07.671Z,0
2022-10-23T20:48:07.465Z,0
2022-10-23T20:51:07.425Z,0
2022-10-23T20:54:07.347Z,0
2022-10-23T20:57:07.336Z,0
2022-10-23T21:00:07.460Z,0
2022-10-23T21:03:07.313Z,0
2022-10-23T21:06:07.424Z,0
2022-10-23T21:09:07.687Z,0
2022-10-23T21:12:07.331Z,0
2022-10-23T21:15:07.367Z,0
2022-10-23T21:18:49.750Z,0
2022-10-23T21:21:07.430Z,0
2022-10-23T21:24:07.342Z,0
2022-10-23T21:27:07.328Z,0
2022-10-23T21:30:07.518Z,0
2022-10-23T21:33:07.351Z,0
2022-10-23T21:36:20.608Z,0
2022-10-23T21:39:07.310Z,0
2022-10-23T21:42:07.360Z,0
2022-10-23T21:45:07.370Z,0
2022-10-23T21:48:07.355Z,0
2022-10-23T21:51:07.364Z,0
2022-10-23T21:54:07.333Z,0
2022-10-23T21:57:07.350Z,0
2022-10-23T22:00:07.863Z,0
2022-10-23T22:03:07.367Z,0
2022-10-23T22:06:07.404Z,0
2022-10-23T22:09:07.380Z,0
2022-10-23T22:12:07.385Z,0
2022-10-23T22:15:07.349Z,0
2022-10-23T22:18:07.420Z,0
2022-10-23T22:21:08.132Z,0
2022-10-23T22:24:08.712Z,0
2022-10-23T22:27:07.366Z,0
2022-10-23T22:30:07.414Z,0
2022-10-23T22:33:07.326Z,0
2022-10-23T22:36:07.407Z,0
2022-10-23T22:39:07.415Z,0
2022-10-23T22:42:07.419Z,0
2022-10-23T22:45:07.366Z,0
2022-10-23T22:48:07.282Z,0
2022-10-23T22:51:10.571Z,0
2022-10-23T22:54:07.323Z,0
2022-10-23T22:57:07.282Z,0
2022-10-23T23:00:07.388Z,0
2022-10-23T23:03:07.907Z,0
2022-10-23T23:06:07.311Z,0
2022-10-23T23:09:07.361Z,0
2022-10-23T23:12:07.356Z,0
2022-10-23T23:15:07.430Z,0
2022-10-23T23:18:07.295Z,0
2022-10-23T23:21:07.542Z,0
2022-10-23T23:24:07.276Z,0
2022-10-23T23:27:07.351Z,0
2022-10-23T23:30:07.394Z,0
2022-10-23T23:33:07.338Z,0
2022-10-23T23:36:07.341Z,0
2022-10-23T23:39:08.490Z,0
2022-10-23T23:42:07.370Z,0
2022-10-23T23:45:20.428Z,0
2022-10-23T23:48:07.292Z,0
2022-10-23T23:51:07.296Z,0
2022-10-23T23:54:07.332Z,0
2022-10-23T23:57:07.288Z,0
